createdAt,value
2022-09-12T00:00:14.419Z,12.86
2022-09-12T00:01:14.480Z,12.82
2022-09-12T00:02:14.437Z,12.98
2022-09-12T00:03:14.395Z,12.86
2022-09-12T00:04:14.391Z,12.86
2022-09-12T00:05:14.385Z,12.86
2022-09-12T00:06:14.365Z,12.83
2022-09-12T00:07:14.364Z,12.93
2022-09-12T00:08:14.351Z,12.93
2022-09-12T00:09:14.340Z,13.05
2022-09-12T00:10:14.347Z,13.03
2022-09-12T00:11:14.347Z,12.97
2022-09-12T00:12:14.343Z,13.03
2022-09-12T00:13:14.319Z,13.12
2022-09-12T00:14:14.309Z,13.15
2022-09-12T00:15:14.307Z,13.20
2022-09-12T00:16:14.364Z,13.09
2022-09-12T00:17:14.306Z,13.03
2022-09-12T00:18:14.282Z,13.00
2022-09-12T00:19:14.263Z,13.05
2022-09-12T00:20:14.251Z,13.00
2022-09-12T00:21:14.242Z,13.03
2022-09-12T00:22:14.247Z,12.90
2022-09-12T00:23:14.249Z,12.87
2022-09-12T00:24:14.239Z,12.86
2022-09-12T00:25:14.221Z,12.91
2022-09-12T00:26:14.216Z,12.95
2022-09-12T00:27:14.196Z,12.87
2022-09-12T00:28:14.197Z,12.90
2022-09-12T00:29:14.200Z,12.86
2022-09-12T00:30:14.181Z,12.80
2022-09-12T00:31:14.236Z,12.85
2022-09-12T00:32:14.161Z,12.83
2022-09-12T00:33:14.155Z,12.80
2022-09-12T00:34:14.142Z,12.91
2022-09-12T00:35:14.218Z,12.86
2022-09-12T00:36:14.131Z,12.80
2022-09-12T00:37:14.124Z,12.80
2022-09-12T00:38:14.110Z,12.86
2022-09-12T00:39:14.112Z,12.87
2022-09-12T00:40:14.138Z,12.79
2022-09-12T00:41:14.118Z,12.83
2022-09-12T00:42:14.085Z,12.73
2022-09-12T00:43:14.066Z,12.76
2022-09-12T00:44:14.057Z,12.68
2022-09-12T00:45:14.048Z,12.64
2022-09-12T00:46:14.044Z,12.62
2022-09-12T00:47:14.062Z,12.50
2022-09-12T00:48:14.036Z,12.58
2022-09-12T00:49:14.018Z,12.54
2022-09-12T00:50:14.018Z,12.47
2022-09-12T00:51:14.005Z,12.37
2022-09-12T00:52:13.997Z,12.31
2022-09-12T00:53:14.005Z,12.27
2022-09-12T00:54:13.987Z,12.36
2022-09-12T00:55:13.977Z,12.31
2022-09-12T00:56:13.973Z,12.29
2022-09-12T00:57:13.964Z,12.17
2022-09-12T00:58:13.954Z,12.22
2022-09-12T00:59:13.960Z,12.25
2022-09-12T01:00:13.951Z,12.24
2022-09-12T01:01:14.053Z,12.20
2022-09-12T01:02:13.975Z,12.18
2022-09-12T01:03:13.909Z,12.28
2022-09-12T01:04:13.931Z,12.24
2022-09-12T01:05:13.900Z,12.22
2022-09-12T01:06:13.889Z,12.20
2022-09-12T01:07:13.884Z,12.21
2022-09-12T01:08:13.872Z,12.25
2022-09-12T01:09:13.862Z,12.17
2022-09-12T01:10:13.885Z,12.13
2022-09-12T01:11:13.849Z,12.15
2022-09-12T01:12:13.847Z,12.25
2022-09-12T01:13:13.832Z,12.13
2022-09-12T01:14:13.827Z,12.20
2022-09-12T01:15:13.826Z,12.22
2022-09-12T01:16:13.854Z,12.15
2022-09-12T01:17:13.791Z,12.13
2022-09-12T01:18:13.804Z,12.12
2022-09-12T01:19:13.798Z,12.15
2022-09-12T01:20:13.785Z,12.06
2022-09-12T01:21:13.774Z,12.07
2022-09-12T01:22:13.786Z,12.03
2022-09-12T01:23:13.751Z,11.94
2022-09-12T01:24:13.744Z,12.00
2022-09-12T01:25:13.739Z,11.97
2022-09-12T01:26:13.727Z,11.97
2022-09-12T01:27:13.722Z,11.99
2022-09-12T01:28:13.738Z,12.04
2022-09-12T01:29:13.701Z,12.02
2022-09-12T01:30:13.702Z,11.99
2022-09-12T01:31:13.706Z,12.03
2022-09-12T01:32:13.710Z,12.04
2022-09-12T01:33:13.669Z,12.15
2022-09-12T01:34:13.665Z,12.13
2022-09-12T01:35:13.658Z,12.10
2022-09-12T01:36:13.650Z,12.03
2022-09-12T01:37:13.666Z,12.00
2022-09-12T01:38:13.642Z,12.04
2022-09-12T01:39:13.632Z,12.07
2022-09-12T01:40:13.652Z,12.02
2022-09-12T01:41:13.617Z,11.90
2022-09-12T01:42:13.607Z,11.91
2022-09-12T01:43:13.614Z,11.95
2022-09-12T01:44:13.620Z,11.94
2022-09-12T01:45:13.591Z,11.95
2022-09-12T01:46:13.586Z,11.97
2022-09-12T01:47:13.569Z,11.90
2022-09-12T01:48:13.569Z,11.87
2022-09-12T01:49:13.556Z,12.02
2022-09-12T01:50:13.571Z,12.02
2022-09-12T01:51:13.540Z,12.00
2022-09-12T01:52:13.537Z,11.97
2022-09-12T01:53:13.547Z,12.07
2022-09-12T01:54:13.519Z,12.07
2022-09-12T01:55:13.508Z,12.13
2022-09-12T01:56:13.501Z,12.09
2022-09-12T01:57:13.490Z,12.09
2022-09-12T01:58:13.488Z,12.04
2022-09-12T01:59:13.490Z,12.07
2022-09-12T02:00:13.470Z,11.99
2022-09-12T02:01:13.487Z,11.99
2022-09-12T02:02:13.502Z,12.00
2022-09-12T02:03:13.448Z,12.02
2022-09-12T02:04:13.444Z,12.02
2022-09-12T02:05:13.439Z,12.13
2022-09-12T02:06:13.439Z,12.13
2022-09-12T02:07:13.436Z,12.13
2022-09-12T02:08:13.411Z,12.12
2022-09-12T02:09:13.390Z,12.15
2022-09-12T02:10:13.393Z,12.10
2022-09-12T02:11:13.389Z,12.09
2022-09-12T02:12:13.399Z,12.07
2022-09-12T02:13:13.364Z,12.15
2022-09-12T02:14:13.365Z,12.20
2022-09-12T02:15:13.374Z,12.12
2022-09-12T02:16:13.410Z,12.02
2022-09-12T02:17:13.337Z,11.97
2022-09-12T02:18:13.331Z,11.88
2022-09-12T02:19:13.318Z,12.00
2022-09-12T02:20:21.364Z,12.09
2022-09-12T02:21:14.305Z,11.94
2022-09-12T02:22:13.295Z,11.80
2022-09-12T02:23:13.291Z,11.84
2022-09-12T02:24:13.301Z,11.97
2022-09-12T02:25:13.269Z,11.90
2022-09-12T02:26:13.262Z,11.87
2022-09-12T02:27:13.255Z,11.90
2022-09-12T02:28:13.249Z,11.81
2022-09-12T02:29:13.259Z,11.90
2022-09-12T02:30:13.234Z,11.83
2022-09-12T02:31:13.240Z,11.84
2022-09-12T02:32:13.215Z,11.84
2022-09-12T02:33:13.240Z,11.86
2022-09-12T02:34:13.210Z,11.81
2022-09-12T02:35:13.195Z,11.78
2022-09-12T02:36:13.189Z,11.78
2022-09-12T02:37:13.202Z,11.69
2022-09-12T02:38:13.172Z,11.68
2022-09-12T02:39:13.169Z,11.57
2022-09-12T02:40:13.209Z,11.57
2022-09-12T02:41:13.149Z,11.60
2022-09-12T02:42:13.146Z,11.60
2022-09-12T02:43:13.148Z,11.63
2022-09-12T02:44:13.122Z,11.65
2022-09-12T02:45:13.116Z,11.65
2022-09-12T02:46:13.102Z,11.52
2022-09-12T02:47:13.091Z,11.55
2022-09-12T02:48:13.631Z,11.52
2022-09-12T02:49:13.087Z,11.43
2022-09-12T02:50:13.084Z,11.55
2022-09-12T02:51:13.071Z,11.47
2022-09-12T02:52:13.090Z,11.62
2022-09-12T02:53:13.052Z,11.60
2022-09-12T02:54:13.041Z,11.59
2022-09-12T02:55:13.037Z,11.69
2022-09-12T02:56:13.030Z,11.73
2022-09-12T02:57:13.029Z,11.73
2022-09-12T02:58:13.033Z,11.68
2022-09-12T02:59:13.024Z,11.78
2022-09-12T03:00:13.024Z,11.70
2022-09-12T03:01:12.999Z,11.70
2022-09-12T03:02:13.042Z,11.69
2022-09-12T03:03:12.983Z,11.73
2022-09-12T03:04:12.974Z,11.73
2022-09-12T03:05:12.998Z,11.55
2022-09-12T03:06:12.969Z,11.54
2022-09-12T03:07:12.956Z,11.52
2022-09-12T03:08:12.956Z,11.51
2022-09-12T03:09:12.935Z,11.52
2022-09-12T03:10:12.931Z,11.48
2022-09-12T03:11:12.943Z,11.45
2022-09-12T03:12:12.919Z,11.55
2022-09-12T03:13:12.931Z,11.47
2022-09-12T03:14:12.908Z,11.50
2022-09-12T03:15:12.899Z,11.66
2022-09-12T03:16:12.970Z,11.68
2022-09-12T03:17:12.880Z,11.70
2022-09-12T03:18:12.871Z,11.75
2022-09-12T03:19:12.869Z,11.83
2022-09-12T03:20:12.883Z,11.83
2022-09-12T03:21:12.849Z,11.81
2022-09-12T03:22:12.846Z,11.86
2022-09-12T03:23:12.836Z,11.83
2022-09-12T03:24:12.858Z,11.77
2022-09-12T03:25:12.816Z,11.72
2022-09-12T03:26:12.811Z,11.69
2022-09-12T03:27:12.809Z,11.66
2022-09-12T03:28:12.807Z,11.66
2022-09-12T03:29:12.808Z,11.65
2022-09-12T03:30:19.814Z,11.60
2022-09-12T03:31:12.773Z,11.63
2022-09-12T03:32:12.767Z,11.65
2022-09-12T03:33:12.768Z,11.57
2022-09-12T03:34:12.785Z,11.70
2022-09-12T03:35:12.743Z,11.77
2022-09-12T03:36:12.743Z,11.72
2022-09-12T03:37:12.730Z,11.63
2022-09-12T03:38:12.728Z,11.66
2022-09-12T03:39:12.714Z,11.72
2022-09-12T03:40:12.778Z,11.77
2022-09-12T03:41:12.719Z,11.75
2022-09-12T03:42:12.698Z,11.77
2022-09-12T03:43:12.696Z,11.81
2022-09-12T03:44:12.671Z,11.81
2022-09-12T03:45:12.669Z,11.72
2022-09-12T03:46:12.661Z,11.70
2022-09-12T03:47:12.670Z,11.69
2022-09-12T03:48:12.648Z,11.66
2022-09-12T03:49:12.657Z,11.80
2022-09-12T03:50:12.635Z,11.66
2022-09-12T03:51:12.647Z,11.66
2022-09-12T03:52:12.624Z,11.59
2022-09-12T03:53:16.930Z,11.65
2022-09-12T03:54:12.604Z,11.69
2022-09-12T03:55:12.596Z,11.63
2022-09-12T03:56:12.592Z,11.72
2022-09-12T03:57:12.601Z,11.66
2022-09-12T03:58:12.573Z,11.62
2022-09-12T03:59:12.561Z,11.60
2022-09-12T04:00:16.395Z,11.77
2022-09-12T04:01:12.678Z,11.65
2022-09-12T04:02:12.586Z,11.50
2022-09-12T04:03:12.531Z,11.50
2022-09-12T04:04:12.525Z,11.52
2022-09-12T04:05:12.544Z,11.43
2022-09-12T04:06:12.511Z,11.36
2022-09-12T04:07:12.498Z,11.47
2022-09-12T04:08:12.502Z,11.43
2022-09-12T04:09:12.489Z,11.48
2022-09-12T04:10:12.483Z,11.47
2022-09-12T04:11:12.483Z,11.54
2022-09-12T04:12:12.470Z,11.43
2022-09-12T04:13:12.458Z,11.45
2022-09-12T04:14:12.455Z,11.50
2022-09-12T04:15:12.456Z,11.41
2022-09-12T04:16:12.520Z,11.50
2022-09-12T04:17:12.451Z,11.35
2022-09-12T04:18:12.424Z,11.43
2022-09-12T04:19:12.418Z,11.45
2022-09-12T04:20:12.409Z,11.47
2022-09-12T04:21:12.395Z,11.43
2022-09-12T04:22:12.408Z,11.41
2022-09-12T04:23:12.386Z,11.35
2022-09-12T04:24:12.395Z,11.36
2022-09-12T04:25:12.364Z,11.41
2022-09-12T04:26:12.358Z,11.30
2022-09-12T04:27:12.383Z,11.17
2022-09-12T04:28:12.349Z,11.22
2022-09-12T04:29:12.342Z,11.19
2022-09-12T04:30:12.342Z,11.12
2022-09-12T04:31:12.327Z,11.19
2022-09-12T04:32:12.316Z,11.27
2022-09-12T04:33:12.333Z,11.35
2022-09-12T04:34:12.305Z,11.27
2022-09-12T04:35:12.292Z,11.26
2022-09-12T04:36:12.315Z,11.18
2022-09-12T04:37:12.283Z,11.26
2022-09-12T04:38:12.269Z,11.27
2022-09-12T04:39:12.258Z,11.40
2022-09-12T04:40:12.279Z,11.43
2022-09-12T04:41:12.253Z,11.35
2022-09-12T04:42:12.266Z,11.35
2022-09-12T04:43:14.486Z,11.51
2022-09-12T04:44:12.239Z,11.50
2022-09-12T04:45:12.223Z,11.45
2022-09-12T04:46:12.283Z,11.55
2022-09-12T04:47:12.215Z,11.52
2022-09-12T04:48:12.199Z,11.48
2022-09-12T04:49:12.190Z,11.52
2022-09-12T04:50:12.179Z,11.44
2022-09-12T04:51:12.175Z,11.47
2022-09-12T04:52:12.182Z,11.48
2022-09-12T04:53:12.165Z,11.33
2022-09-12T04:54:12.165Z,11.40
2022-09-12T04:55:12.142Z,11.50
2022-09-12T04:56:12.142Z,11.48
2022-09-12T04:57:12.154Z,11.51
2022-09-12T04:58:12.125Z,11.37
2022-09-12T04:59:12.123Z,11.37
2022-09-12T05:00:12.109Z,11.48
2022-09-12T05:01:12.161Z,11.51
2022-09-12T05:02:12.142Z,11.47
2022-09-12T05:03:12.080Z,11.55
2022-09-12T05:04:12.080Z,11.57
2022-09-12T05:05:12.071Z,11.55
2022-09-12T05:06:12.067Z,11.54
2022-09-12T05:07:12.072Z,11.50
2022-09-12T05:08:12.041Z,11.55
2022-09-12T05:09:12.038Z,11.55
2022-09-12T05:10:12.021Z,11.51
2022-09-12T05:11:12.037Z,11.54
2022-09-12T05:12:12.028Z,11.47
2022-09-12T05:13:12.002Z,11.37
2022-09-12T05:14:12.195Z,11.40
2022-09-12T05:15:11.987Z,11.35
2022-09-12T05:16:12.023Z,11.22
2022-09-12T05:17:11.962Z,11.27
2022-09-12T05:18:11.958Z,11.08
2022-09-12T05:19:11.941Z,11.15
2022-09-12T05:20:11.964Z,11.12
2022-09-12T05:21:11.930Z,11.23
2022-09-12T05:22:11.932Z,11.08
2022-09-12T05:23:11.911Z,11.10
2022-09-12T05:24:11.901Z,11.14
2022-09-12T05:25:11.900Z,11.08
2022-09-12T05:26:11.928Z,11.11
2022-09-12T05:27:11.903Z,11.11
2022-09-12T05:28:11.881Z,11.23
2022-09-12T05:29:11.866Z,11.35
2022-09-12T05:30:11.878Z,11.40
2022-09-12T05:31:11.847Z,11.51
2022-09-12T05:32:11.977Z,11.52
2022-09-12T05:33:11.846Z,11.51
2022-09-12T05:34:11.839Z,11.62
2022-09-12T05:35:11.833Z,11.62
2022-09-12T05:36:11.836Z,11.69
2022-09-12T05:37:11.798Z,11.72
2022-09-12T05:38:11.793Z,11.62
2022-09-12T05:39:11.828Z,11.68
2022-09-12T05:40:11.830Z,11.70
2022-09-12T05:41:16.951Z,11.66
2022-09-12T05:42:12.766Z,11.57
2022-09-12T05:43:11.783Z,11.48
2022-09-12T05:44:11.753Z,11.50
2022-09-12T05:45:11.739Z,11.48
2022-09-12T05:46:11.755Z,11.47
2022-09-12T05:47:11.715Z,11.51
2022-09-12T05:48:11.717Z,11.45
2022-09-12T05:49:11.722Z,11.55
2022-09-12T05:50:11.710Z,11.55
2022-09-12T05:51:11.679Z,11.57
2022-09-12T05:52:11.704Z,11.63
2022-09-12T05:53:11.672Z,11.70
2022-09-12T05:54:11.663Z,11.68
2022-09-12T05:55:11.681Z,11.77
2022-09-12T05:56:11.660Z,11.75
2022-09-12T05:57:11.641Z,11.77
2022-09-12T05:58:11.646Z,11.69
2022-09-12T05:59:11.618Z,11.80
2022-09-12T06:00:11.625Z,11.66
2022-09-12T06:01:11.690Z,11.77
2022-09-12T06:02:11.658Z,11.83
2022-09-12T06:03:11.598Z,11.78
2022-09-12T06:04:11.588Z,11.94
2022-09-12T06:05:11.613Z,11.77
2022-09-12T06:06:11.576Z,11.80
2022-09-12T06:07:11.580Z,11.80
2022-09-12T06:08:11.657Z,11.78
2022-09-12T06:09:11.626Z,11.72
2022-09-12T06:10:11.617Z,11.70
2022-09-12T06:11:11.621Z,11.62
2022-09-12T06:12:11.580Z,11.62
2022-09-12T06:13:11.560Z,11.60
2022-09-12T06:14:11.575Z,11.65
2022-09-12T06:15:11.529Z,11.66
2022-09-12T06:16:11.548Z,11.66
2022-09-12T06:17:11.516Z,11.62
2022-09-12T06:18:11.508Z,11.90
2022-09-12T06:19:11.509Z,11.95
2022-09-12T06:20:11.501Z,11.90
2022-09-12T06:21:11.500Z,11.97
2022-09-12T06:22:11.476Z,12.03
2022-09-12T06:23:11.456Z,12.04
2022-09-12T06:24:11.485Z,11.95
2022-09-12T06:25:11.484Z,11.90
2022-09-12T06:26:11.445Z,12.06
2022-09-12T06:27:11.437Z,12.00
2022-09-12T06:28:11.431Z,12.00
2022-09-12T06:29:11.422Z,11.99
2022-09-12T06:30:11.413Z,12.03
2022-09-12T06:31:11.482Z,11.87
2022-09-12T06:32:11.398Z,11.87
2022-09-12T06:33:11.384Z,11.84
2022-09-12T06:34:11.404Z,11.97
2022-09-12T06:35:11.375Z,11.77
2022-09-12T06:36:12.550Z,11.84
2022-09-12T06:37:11.382Z,11.94
2022-09-12T06:38:11.363Z,11.95
2022-09-12T06:39:11.346Z,11.97
2022-09-12T06:40:11.388Z,11.84
2022-09-12T06:41:11.352Z,11.81
2022-09-12T06:42:11.328Z,12.00
2022-09-12T06:43:11.341Z,12.03
2022-09-12T06:44:11.343Z,12.04
2022-09-12T06:45:11.323Z,12.02
2022-09-12T06:46:11.365Z,12.09
2022-09-12T06:47:11.299Z,11.90
2022-09-12T06:48:11.290Z,12.12
2022-09-12T06:49:11.301Z,12.18
2022-09-12T06:50:11.309Z,12.13
2022-09-12T06:51:11.281Z,12.02
2022-09-12T06:52:11.270Z,12.04
2022-09-12T06:53:11.287Z,12.07
2022-09-12T06:54:11.255Z,11.97
2022-09-12T06:55:11.242Z,12.12
2022-09-12T06:56:11.235Z,12.15
2022-09-12T06:57:11.226Z,12.22
2022-09-12T06:58:11.227Z,12.24
2022-09-12T06:59:11.244Z,12.35
2022-09-12T07:00:11.203Z,12.29
2022-09-12T07:01:11.242Z,12.37
2022-09-12T07:02:11.235Z,12.37
2022-09-12T07:03:11.187Z,12.45
2022-09-12T07:04:11.188Z,12.32
2022-09-12T07:05:11.179Z,12.35
2022-09-12T07:06:11.170Z,12.27
2022-09-12T07:07:11.157Z,12.17
2022-09-12T07:08:11.152Z,12.13
2022-09-12T07:09:11.160Z,12.15
2022-09-12T07:10:11.144Z,12.15
2022-09-12T07:11:11.123Z,12.21
2022-09-12T07:12:11.139Z,12.32
2022-09-12T07:13:11.110Z,12.32
2022-09-12T07:14:11.098Z,12.46
2022-09-12T07:15:11.107Z,12.53
2022-09-12T07:16:12.295Z,12.58
2022-09-12T07:17:11.172Z,12.54
2022-09-12T07:18:11.072Z,12.65
2022-09-12T07:19:11.074Z,12.58
2022-09-12T07:20:11.074Z,12.58
2022-09-12T07:21:11.046Z,12.57
2022-09-12T07:22:11.058Z,12.65
2022-09-12T07:23:11.033Z,12.68
2022-09-12T07:24:11.204Z,12.82
2022-09-12T07:25:11.029Z,12.78
2022-09-12T07:26:11.011Z,12.80
2022-09-12T07:27:11.017Z,12.83
2022-09-12T07:28:10.999Z,12.79
2022-09-12T07:29:36.602Z,12.78
2022-09-12T07:30:11.987Z,12.93
2022-09-12T07:31:11.034Z,12.83
2022-09-12T07:32:10.991Z,12.85
2022-09-12T07:33:10.951Z,12.98
2022-09-12T07:34:10.952Z,13.03
2022-09-12T07:35:10.953Z,13.00
2022-09-12T07:36:10.945Z,13.01
2022-09-12T07:37:10.950Z,13.15
2022-09-12T07:38:11.038Z,13.18
2022-09-12T07:39:10.906Z,13.30
2022-09-12T07:40:10.967Z,13.46
2022-09-12T07:41:10.896Z,13.46
2022-09-12T07:42:10.884Z,13.47
2022-09-12T07:43:10.880Z,13.49
2022-09-12T07:44:10.894Z,13.44
2022-09-12T07:45:10.869Z,13.52
2022-09-12T07:46:10.880Z,13.47
2022-09-12T07:47:10.848Z,13.39
2022-09-12T07:48:10.840Z,13.56
2022-09-12T07:49:10.827Z,13.59
2022-09-12T07:50:10.833Z,13.54
2022-09-12T07:51:10.827Z,13.50
2022-09-12T07:52:10.802Z,13.63
2022-09-12T07:53:10.797Z,13.67
2022-09-12T07:54:10.793Z,13.72
2022-09-12T07:55:10.799Z,13.71
2022-09-12T07:56:10.785Z,13.70
2022-09-12T07:57:10.754Z,13.59
2022-09-12T07:58:10.777Z,13.59
2022-09-12T07:59:10.766Z,13.52
2022-09-12T08:00:10.735Z,13.62
2022-09-12T08:01:10.763Z,13.65
2022-09-12T08:02:16.071Z,13.59
2022-09-12T08:03:11.733Z,13.81
2022-09-12T08:04:10.731Z,13.68
2022-09-12T08:05:10.705Z,13.57
2022-09-12T08:06:10.695Z,13.60
2022-09-12T08:07:10.695Z,13.56
2022-09-12T08:08:10.691Z,13.52
2022-09-12T08:09:10.678Z,13.50
2022-09-12T08:10:10.683Z,13.59
2022-09-12T08:11:10.658Z,13.77
2022-09-12T08:12:10.683Z,13.85
2022-09-12T08:13:10.960Z,13.92
2022-09-12T08:14:10.636Z,14.12
2022-09-12T08:15:10.621Z,14.25
2022-09-12T08:16:10.667Z,14.36
2022-09-12T08:17:10.616Z,14.45
2022-09-12T08:18:10.646Z,14.53
2022-09-12T08:19:10.591Z,14.66
2022-09-12T08:20:10.598Z,14.81
2022-09-12T08:21:10.582Z,14.85
2022-09-12T08:22:10.570Z,15.03
2022-09-12T08:23:10.559Z,15.02
2022-09-12T08:24:10.577Z,15.09
2022-09-12T08:25:10.536Z,15.02
2022-09-12T08:26:10.566Z,15.10
2022-09-12T08:27:10.532Z,15.17
2022-09-12T08:28:10.514Z,15.10
2022-09-12T08:29:10.530Z,15.11
2022-09-12T08:30:10.506Z,15.21
2022-09-12T08:31:10.547Z,15.40
2022-09-12T08:32:10.529Z,15.31
2022-09-12T08:33:10.482Z,15.58
2022-09-12T08:34:10.480Z,15.62
2022-09-12T08:35:10.490Z,15.79
2022-09-12T08:36:10.489Z,15.94
2022-09-12T08:37:10.456Z,16.13
2022-09-12T08:38:10.456Z,16.13
2022-09-12T08:39:10.434Z,16.21
2022-09-12T08:40:10.509Z,16.15
2022-09-12T08:41:10.422Z,16.16
2022-09-12T08:43:10.422Z,15.83
2022-09-12T08:44:10.400Z,15.95
2022-09-12T08:45:10.395Z,16.41
2022-09-12T08:46:10.451Z,16.69
2022-09-12T08:47:10.397Z,16.97
2022-09-12T08:48:10.372Z,17.52
2022-09-12T08:49:10.358Z,17.98
2022-09-12T08:50:10.371Z,18.40
2022-09-12T08:51:10.345Z,18.56
2022-09-12T08:52:10.363Z,18.75
2022-09-12T08:53:10.336Z,18.86
2022-09-12T08:54:10.325Z,18.88
2022-09-12T08:55:10.317Z,18.98
2022-09-12T08:56:10.303Z,18.88
2022-09-12T08:57:10.344Z,19.07
2022-09-12T08:58:10.284Z,19.41
2022-09-12T08:59:10.274Z,19.48
2022-09-12T09:00:10.276Z,19.59
2022-09-12T09:01:10.345Z,19.77
2022-09-12T09:02:10.315Z,19.84
2022-09-12T09:03:10.269Z,20.09
2022-09-12T09:04:10.245Z,20.34
2022-09-12T09:05:10.243Z,20.16
2022-09-12T09:06:10.224Z,20.39
2022-09-12T09:07:10.215Z,20.56
2022-09-12T09:08:10.217Z,20.56
2022-09-12T09:09:10.211Z,20.55
2022-09-12T09:10:10.194Z,20.58
2022-09-12T09:11:10.197Z,20.65
2022-09-12T09:12:10.172Z,20.69
2022-09-12T09:13:10.164Z,20.66
2022-09-12T09:14:10.183Z,20.72
2022-09-12T09:15:10.184Z,20.70
2022-09-12T09:16:10.197Z,20.92
2022-09-12T09:17:10.129Z,21.15
2022-09-12T09:18:10.120Z,21.36
2022-09-12T09:19:10.109Z,21.18
2022-09-12T09:20:10.107Z,21.07
2022-09-12T09:21:10.116Z,21.05
2022-09-12T09:22:10.081Z,21.25
2022-09-12T09:23:10.070Z,21.33
2022-09-12T09:24:10.082Z,21.50
2022-09-12T09:25:10.059Z,21.72
2022-09-12T09:26:10.061Z,21.83
2022-09-12T09:27:29.940Z,21.99
2022-09-12T09:28:11.052Z,22.10
2022-09-12T09:29:10.035Z,22.22
2022-09-12T09:30:10.025Z,22.06
2022-09-12T09:31:17.121Z,22.22
2022-09-12T09:32:10.005Z,22.25
2022-09-12T09:33:10.009Z,22.29
2022-09-12T09:34:09.986Z,21.92
2022-09-12T09:35:09.976Z,22.00
2022-09-12T09:36:09.971Z,22.15
2022-09-12T09:37:09.963Z,22.38
2022-09-12T09:38:09.955Z,22.47
2022-09-12T09:39:09.970Z,22.47
2022-09-12T09:40:09.972Z,22.55
2022-09-12T09:41:09.927Z,22.50
2022-09-12T09:42:09.921Z,22.57
2022-09-12T09:43:09.925Z,22.72
2022-09-12T09:44:09.912Z,22.85
2022-09-12T09:45:09.900Z,22.69
2022-09-12T09:46:09.963Z,22.36
2022-09-12T09:47:09.895Z,22.17
2022-09-12T09:48:09.869Z,22.22
2022-09-12T09:49:09.885Z,22.22
2022-09-12T09:50:09.859Z,22.39
2022-09-12T09:51:09.860Z,22.60
2022-09-12T09:52:09.871Z,22.69
2022-09-12T09:53:09.826Z,22.85
2022-09-12T09:54:09.835Z,23.00
2022-09-12T09:55:09.805Z,23.15
2022-09-12T09:56:09.823Z,23.28
2022-09-12T09:57:09.784Z,23.34
2022-09-12T09:58:09.797Z,23.40
2022-09-12T09:59:09.822Z,23.66
2022-09-12T10:00:09.785Z,23.47
2022-09-12T10:01:09.822Z,23.27
2022-09-12T10:02:09.818Z,23.28
2022-09-12T10:03:13.394Z,23.37
2022-09-12T10:04:09.744Z,23.62
2022-09-12T10:05:09.762Z,23.66
2022-09-12T10:06:09.751Z,23.56
2022-09-12T10:07:09.722Z,23.61
2022-09-12T10:08:09.714Z,23.65
2022-09-12T10:09:09.707Z,23.66
2022-09-12T10:10:09.718Z,23.71
2022-09-12T10:11:09.683Z,23.71
2022-09-12T10:12:09.689Z,23.65
2022-09-12T10:13:09.676Z,23.80
2022-09-12T10:14:09.677Z,23.84
2022-09-12T10:15:09.659Z,23.86
2022-09-12T10:16:09.802Z,23.84
2022-09-12T10:17:09.646Z,23.88
2022-09-12T10:18:09.647Z,23.88
2022-09-12T10:19:09.632Z,24.03
2022-09-12T10:20:20.935Z,23.98
2022-09-12T10:21:10.636Z,23.93
2022-09-12T10:22:09.633Z,23.92
2022-09-12T10:23:09.612Z,24.01
2022-09-12T10:24:09.604Z,24.05
2022-09-12T10:25:09.592Z,23.98
2022-09-12T10:26:09.592Z,23.86
2022-09-12T10:27:09.608Z,23.78
2022-09-12T10:28:09.569Z,23.78
2022-09-12T10:29:09.561Z,23.71
2022-09-12T10:30:09.554Z,23.66
2022-09-12T10:31:09.572Z,23.59
2022-09-12T10:32:09.535Z,23.44
2022-09-12T10:33:09.546Z,23.41
2022-09-12T10:34:09.526Z,23.40
2022-09-12T10:35:09.524Z,23.27
2022-09-12T10:36:09.511Z,23.32
2022-09-12T10:37:09.500Z,23.46
2022-09-12T10:38:09.499Z,23.59
2022-09-12T10:39:09.505Z,23.76
2022-09-12T10:40:09.577Z,23.80
2022-09-12T10:41:09.471Z,23.80
2022-09-12T10:42:09.457Z,23.78
2022-09-12T10:43:09.479Z,23.84
2022-09-12T10:44:09.475Z,23.92
2022-09-12T10:45:09.439Z,23.96
2022-09-12T10:46:09.487Z,24.10
2022-09-12T10:47:09.439Z,24.05
2022-09-12T10:48:09.418Z,24.11
2022-09-12T10:49:09.414Z,24.10
2022-09-12T10:50:09.445Z,24.32
2022-09-12T10:51:09.407Z,24.35
2022-09-12T10:52:09.424Z,24.40
2022-09-12T10:53:09.387Z,24.28
2022-09-12T10:54:09.382Z,24.39
2022-09-12T10:55:09.391Z,24.53
2022-09-12T10:56:09.361Z,24.63
2022-09-12T10:57:09.357Z,24.65
2022-09-12T10:58:09.348Z,24.65
2022-09-12T10:59:09.337Z,24.69
2022-09-12T11:00:09.354Z,24.80
2022-09-12T11:01:09.393Z,25.01
2022-09-12T11:02:09.394Z,25.04
2022-09-12T11:03:09.309Z,24.93
2022-09-12T11:04:09.304Z,25.01
2022-09-12T11:05:09.296Z,25.14
2022-09-12T11:06:09.303Z,24.92
2022-09-12T11:07:09.287Z,24.96
2022-09-12T11:08:09.278Z,25.21
2022-09-12T11:09:09.274Z,25.38
2022-09-12T11:10:09.262Z,25.33
2022-09-12T11:11:09.270Z,25.32
2022-09-12T11:12:09.254Z,24.98
2022-09-12T11:13:09.232Z,24.93
2022-09-12T11:14:09.227Z,24.96
2022-09-12T11:15:09.235Z,24.98
2022-09-12T11:16:09.275Z,25.01
2022-09-12T11:17:13.271Z,25.16
2022-09-12T11:18:09.207Z,25.21
2022-09-12T11:19:09.213Z,25.48
2022-09-12T11:20:09.202Z,25.65
2022-09-12T11:21:09.206Z,25.68
2022-09-12T11:22:09.197Z,25.75
2022-09-12T11:23:09.175Z,25.72
2022-09-12T11:24:09.178Z,25.80
2022-09-12T11:25:09.152Z,25.83
2022-09-12T11:26:09.155Z,25.80
2022-09-12T11:27:09.174Z,25.93
2022-09-12T11:28:09.159Z,25.95
2022-09-12T11:29:09.129Z,25.88
2022-09-12T11:30:09.143Z,25.70
2022-09-12T11:31:09.148Z,25.50
2022-09-12T11:32:09.108Z,25.43
2022-09-12T11:33:09.099Z,25.17
2022-09-12T11:34:09.121Z,25.21
2022-09-12T11:35:09.496Z,25.38
2022-09-12T11:36:09.074Z,25.53
2022-09-12T11:37:11.013Z,25.33
2022-09-12T11:38:09.059Z,25.17
2022-09-12T11:39:09.051Z,25.13
2022-09-12T11:40:09.100Z,25.03
2022-09-12T11:41:09.044Z,25.04
2022-09-12T11:42:09.028Z,25.17
2022-09-12T11:43:09.031Z,25.14
2022-09-12T11:44:09.026Z,25.35
2022-09-12T11:45:09.026Z,25.33
2022-09-12T11:46:09.043Z,25.44
2022-09-12T11:47:08.994Z,25.63
2022-09-12T11:48:08.989Z,25.51
2022-09-12T11:49:08.990Z,24.99
2022-09-12T11:50:09.014Z,25.04
2022-09-12T11:51:08.972Z,25.07
2022-09-12T11:52:08.966Z,25.10
2022-09-12T11:53:08.953Z,24.95
2022-09-12T11:54:08.961Z,24.92
2022-09-12T11:55:08.958Z,24.93
2022-09-12T11:56:08.940Z,24.98
2022-09-12T11:57:08.924Z,25.01
2022-09-12T11:58:08.920Z,24.98
2022-09-12T11:59:08.908Z,25.03
2022-09-12T12:00:08.941Z,24.96
2022-09-12T12:01:08.891Z,24.96
2022-09-12T12:02:08.944Z,24.93
2022-09-12T12:03:08.930Z,24.96
2022-09-12T12:04:08.883Z,24.93
2022-09-12T12:05:08.884Z,24.88
2022-09-12T12:06:08.885Z,24.68
2022-09-12T12:07:08.860Z,24.69
2022-09-12T12:08:08.850Z,24.55
2022-09-12T12:09:08.840Z,24.61
2022-09-12T12:10:08.865Z,24.45
2022-09-12T12:11:08.821Z,24.40
2022-09-12T12:12:08.819Z,24.45
2022-09-12T12:13:13.853Z,24.32
2022-09-12T12:14:09.812Z,24.29
2022-09-12T12:15:08.805Z,24.33
2022-09-12T12:16:08.841Z,24.30
2022-09-12T12:17:08.782Z,24.23
2022-09-12T12:18:08.785Z,24.26
2022-09-12T12:19:10.685Z,24.38
2022-09-12T12:20:08.929Z,24.40
2022-09-12T12:21:08.770Z,24.39
2022-09-12T12:22:08.765Z,24.61
2022-09-12T12:23:08.761Z,24.69
2022-09-12T12:24:08.740Z,24.58
2022-09-12T12:25:08.728Z,24.73
2022-09-12T12:26:08.728Z,24.70
2022-09-12T12:27:08.735Z,24.85
2022-09-12T12:28:08.726Z,24.93
2022-09-12T12:29:08.705Z,24.66
2022-09-12T12:30:08.722Z,24.40
2022-09-12T12:31:08.757Z,24.40
2022-09-12T12:32:08.702Z,24.35
2022-09-12T12:33:08.671Z,24.32
2022-09-12T12:34:08.696Z,24.47
2022-09-12T12:35:08.675Z,24.53
2022-09-12T12:36:08.645Z,24.69
2022-09-12T12:37:08.657Z,24.91
2022-09-12T12:38:08.633Z,24.70
2022-09-12T12:39:08.622Z,24.92
2022-09-12T12:40:08.733Z,24.98
2022-09-12T12:41:08.605Z,25.18
2022-09-12T12:42:08.622Z,25.43
2022-09-12T12:43:08.598Z,25.48
2022-09-12T12:44:08.602Z,25.50
2022-09-12T12:45:08.595Z,25.46
2022-09-12T12:46:08.619Z,25.41
2022-09-12T12:47:08.567Z,25.18
2022-09-12T12:48:08.564Z,24.91
2022-09-12T12:49:08.591Z,24.88
2022-09-12T12:50:08.588Z,24.78
2022-09-12T12:51:08.542Z,24.61
2022-09-12T12:52:08.535Z,24.68
2022-09-12T12:53:08.529Z,24.63